地図

経路データ

SID SEASON NUMBER BASIN SUBBASIN NAME ISO_TIME NATURE LAT LON WMO_WIND WMO_PRES WMO_AGENCY TRACK_TYPE DIST2LAND LANDFALL IFLAG USA_AGENCY USA_ATCF_ID USA_LAT USA_LON USA_RECORD USA_STATUS USA_WIND USA_PRES USA_SSHS USA_R34_NE USA_R34_SE USA_R34_SW USA_R34_NW USA_R50_NE USA_R50_SE USA_R50_SW USA_R50_NW USA_R64_NE USA_R64_SE USA_R64_SW USA_R64_NW USA_POCI USA_ROCI USA_RMW USA_EYE TOKYO_LAT TOKYO_LON TOKYO_GRADE TOKYO_WIND TOKYO_PRES TOKYO_R50_DIR TOKYO_R50_LONG TOKYO_R50_SHORT TOKYO_R30_DIR TOKYO_R30_LONG TOKYO_R30_SHORT TOKYO_LAND CMA_LAT CMA_LON CMA_CAT CMA_WIND CMA_PRES HKO_LAT HKO_LON HKO_CAT HKO_WIND HKO_PRES NEWDELHI_LAT NEWDELHI_LON NEWDELHI_GRADE NEWDELHI_WIND NEWDELHI_PRES NEWDELHI_CI NEWDELHI_DP NEWDELHI_POCI REUNION_LAT REUNION_LON REUNION_TYPE REUNION_WIND REUNION_PRES REUNION_TNUM REUNION_CI REUNION_RMW REUNION_R34_NE REUNION_R34_SE REUNION_R34_SW REUNION_R34_NW REUNION_R50_NE REUNION_R50_SE REUNION_R50_SW REUNION_R50_NW REUNION_R64_NE REUNION_R64_SE REUNION_R64_SW REUNION_R64_NW BOM_LAT BOM_LON BOM_TYPE BOM_WIND BOM_PRES BOM_TNUM BOM_CI BOM_RMW BOM_R34_NE BOM_R34_SE BOM_R34_SW BOM_R34_NW BOM_R50_NE BOM_R50_SE BOM_R50_SW BOM_R50_NW BOM_R64_NE BOM_R64_SE BOM_R64_SW BOM_R64_NW BOM_ROCI BOM_POCI BOM_EYE BOM_POS_METHOD BOM_PRES_METHOD NADI_LAT NADI_LON NADI_CAT NADI_WIND NADI_PRES WELLINGTON_LAT WELLINGTON_LON WELLINGTON_WIND WELLINGTON_PRES DS824_LAT DS824_LON DS824_STAGE DS824_WIND DS824_PRES TD9636_LAT TD9636_LON TD9636_STAGE TD9636_WIND TD9636_PRES TD9635_LAT TD9635_LON TD9635_WIND TD9635_PRES TD9635_ROCI NEUMANN_LAT NEUMANN_LON NEUMANN_CLASS NEUMANN_WIND NEUMANN_PRES MLC_LAT MLC_LON MLC_CLASS MLC_WIND MLC_PRES USA_GUST BOM_GUST BOM_GUST_PER REUNION_GUST REUNION_GUST_PER USA_SEAHGT USA_SEARAD_NE USA_SEARAD_SE USA_SEARAD_SW USA_SEARAD_NW STORM_SPEED STORM_DIR
1932231N16151 1932 42 WP MM NOT_NAMED 1932-08-17 21:00:00 NR 15.9000 151.200 main 2059 2057 __________O___ -1 15.9000 151.200 2 21 300
1932231N16151 1932 42 WP MM NOT_NAMED 1932-08-18 00:00:00 NR 16.4151 150.256 main 2096 2095 __________P___ -1 16.4151 150.256 2 21 299
1932231N16151 1932 42 WP MM NOT_NAMED 1932-08-18 03:00:00 NR 16.9024 149.328 main 2138 2138 __________P___ -1 16.9024 149.328 2 20 298
1932231N16151 1932 42 WP MM NOT_NAMED 1932-08-18 06:00:00 NR 17.3384 148.435 main 2138 2066 __________P___ -1 17.3384 148.435 2 18 296
1932231N16151 1932 42 WP MM NOT_NAMED 1932-08-18 09:00:00 NR 17.7000 147.600 main 2066 2010 __________O___ -1 17.7000 147.600 2 17 293
1932231N16151 1932 42 WP MM NOT_NAMED 1932-08-18 12:00:00 NR 17.9717 146.833 main 2006 1962 __________P___ -1 17.9717 146.833 2 15 288
1932231N16151 1932 42 WP MM NOT_NAMED 1932-08-18 15:00:00 NR 18.1663 146.105 main 1962 1931 __________P___ -1 18.1663 146.105 2 14 283
1932231N16151 1932 42 WP MM NOT_NAMED 1932-08-18 18:00:00 NR 18.3029 145.375 main 1931 1890 __________P___ -1 18.3029 145.375 2 14 279
1932231N16151 1932 42 WP MM NOT_NAMED 1932-08-18 21:00:00 NR 18.4000 144.600 main 1890 1840 __________O___ -1 18.4000 144.600 2 16 276
1932231N16151 1932 42 WP MM NOT_NAMED 1932-08-19 00:00:00 NR 18.4590 143.667 main 1840 1800 __________P___ -1 18.4590 143.667 2 18 273
1932231N16151 1932 42 WP MM NOT_NAMED 1932-08-19 03:00:00 NR 18.4873 142.695 main 1800 1767 __________P___ -1 18.4873 142.695 2 18 272
1932231N16151 1932 42 WP MM NOT_NAMED 1932-08-19 06:00:00 NR 18.5216 141.751 main 1767 1718 __________P___ -1 18.5216 141.751 2 17 274
1932231N16151 1932 42 WP MM NOT_NAMED 1932-08-19 09:00:00 NR 18.6000 140.900 main 1718 1671 __________O___ -1 18.6000 140.900 2 15 279
1932231N16151 1932 42 WP MM NOT_NAMED 1932-08-19 12:00:00 NR 18.7522 140.212 main 1661 1625 __________P___ -1 18.7522 140.212 2 13 286
1932231N16151 1932 42 WP MM NOT_NAMED 1932-08-19 15:00:00 NR 18.9573 139.622 main 1610 1564 __________P___ -1 18.9573 139.622 2 12 293
1932231N16151 1932 42 WP MM NOT_NAMED 1932-08-19 18:00:00 NR 19.2090 139.096 main 1564 1509 __________P___ -1 19.2090 139.096 2 11 299
1932231N16151 1932 42 WP MM NOT_NAMED 1932-08-19 21:00:00 NR 19.5000 138.600 main 1509 1454 __________O___ -1 19.5000 138.600 2 12 302
1932231N16151 1932 42 WP MM NOT_NAMED 1932-08-20 00:00:00 NR 19.8220 138.046 main 1448 1384 __________P___ -1 19.8220 138.046 2 12 304
1932231N16151 1932 42 WP MM NOT_NAMED 1932-08-20 03:00:00 NR 20.1774 137.518 main 1384 1335 __________P___ -1 20.1774 137.518 2 12 307
1932231N16151 1932 42 WP MM NOT_NAMED 1932-08-20 06:00:00 NR 20.5441 137.031 main 1330 1272 __________P___ -1 20.5441 137.031 2 11 310
1932231N16151 1932 42 WP MM NOT_NAMED 1932-08-20 09:00:00 NR 20.9000 136.600 main 1272 1228 __________O___ -1 20.9000 136.600 2 10 312
1932231N16151 1932 42 WP MM NOT_NAMED 1932-08-20 12:00:00 NR 21.2012 136.253 main 1228 1184 __________P___ -1 21.2012 136.253 2 8 315
1932231N16151 1932 42 WP MM NOT_NAMED 1932-08-20 15:00:00 NR 21.4912 135.960 main 1184 1141 __________P___ -1 21.4912 135.960 2 8 318
1932231N16151 1932 42 WP MM NOT_NAMED 1932-08-20 18:00:00 NR 21.7857 135.688 main 1141 1097 __________P___ -1 21.7857 135.688 2 8 319
1932231N16151 1932 42 WP MM NOT_NAMED 1932-08-20 21:00:00 NR 22.1000 135.400 main 1097 1054 __________O___ -1 22.1000 135.400 2 9 319
1932231N16151 1932 42 WP MM NOT_NAMED 1932-08-21 00:00:00 NR 22.4657 135.043 main 1040 997 __________P___ -1 22.4657 135.043 2 10 318
1932231N16151 1932 42 WP MM NOT_NAMED 1932-08-21 03:00:00 NR 22.8501 134.665 main 987 940 __________P___ -1 22.8501 134.665 2 10 318
1932231N16151 1932 42 WP MM NOT_NAMED 1932-08-21 06:00:00 NR 23.2344 134.280 main 940 884 __________P___ -1 23.2344 134.280 2 10 317
1932231N16151 1932 42 WP MM NOT_NAMED 1932-08-21 09:00:00 NR 23.6000 133.900 main 884 842 __________O___ -1 23.6000 133.900 2 9 320
1932231N16151 1932 42 WP MM NOT_NAMED 1932-08-21 12:00:00 NR 23.9561 133.619 main 832 793 __________P___ -1 23.9561 133.619 2 9 323
1932231N16151 1932 42 WP MM NOT_NAMED 1932-08-21 15:00:00 NR 24.2866 133.334 main 790 749 __________P___ -1 24.2866 133.334 2 9 317
1932231N16151 1932 42 WP MM NOT_NAMED 1932-08-21 18:00:00 NR 24.5741 132.982 main 749 714 __________P___ -1 24.5741 132.982 2 9 304
1932231N16151 1932 42 WP MM NOT_NAMED 1932-08-21 21:00:00 NR 24.8000 132.500 main 714 689 __________O___ -1 24.8000 132.500 2 11 288
1932231N16151 1932 42 WP MM NOT_NAMED 1932-08-22 00:00:00 NR 24.9219 131.781 main 689 670 __________P___ -1 24.9219 131.781 2 14 277
1932231N16151 1932 42 WP MM NOT_NAMED 1932-08-22 03:00:00 NR 24.9836 130.937 main 670 669 __________P___ -1 24.9836 130.937 2 16 274
1932231N16151 1932 42 WP MM NOT_NAMED 1932-08-22 06:00:00 NR 25.0280 130.050 main 673 665 __________P___ -1 25.0280 130.050 2 16 274
1932231N16151 1932 42 WP MM NOT_NAMED 1932-08-22 09:00:00 NR 25.1000 129.200 main 674 654 __________O___ -1 25.1000 129.200 2 14 280
1932231N16151 1932 42 WP MM NOT_NAMED 1932-08-22 12:00:00 NR 25.2823 128.501 main 654 595 __________P___ -1 25.2823 128.501 2 13 288
1932231N16151 1932 42 WP MM NOT_NAMED 1932-08-22 15:00:00 NR 25.4973 127.849 main 585 537 __________P___ -1 25.4973 127.849 2 12 291
1932231N16151 1932 42 WP MM NOT_NAMED 1932-08-22 18:00:00 NR 25.7138 127.223 main 527 472 __________P___ -1 25.7138 127.223 2 12 290
1932231N16151 1932 42 WP MM NOT_NAMED 1932-08-22 21:00:00 NR 25.9000 126.600 main 472 416 __________O___ -1 25.9000 126.600 2 12 284
1932231N16151 1932 42 WP MM NOT_NAMED 1932-08-23 00:00:00 NR 26.0149 125.921 main 406 352 __________P___ -1 26.0149 125.921 2 12 279
1932231N16151 1932 42 WP MM NOT_NAMED 1932-08-23 03:00:00 NR 26.0951 125.246 main 343 288 __________P___ -1 26.0951 125.246 2 12 277
1932231N16151 1932 42 WP MM NOT_NAMED 1932-08-23 06:00:00 NR 26.1526 124.599 main 292 241 __________P___ -1 26.1526 124.599 2 11 275
1932231N16151 1932 42 WP MM NOT_NAMED 1932-08-23 09:00:00 NR 26.2000 124.000 main 241 208 __________O___ -1 26.2000 124.000 2 10 276
1932231N16151 1932 42 WP MM NOT_NAMED 1932-08-23 12:00:00 NR 26.2641 123.462 main 208 176 __________P___ -1 26.2641 123.462 2 9 278
1932231N16151 1932 42 WP MM NOT_NAMED 1932-08-23 15:00:00 NR 26.3211 122.975 main 176 161 __________P___ -1 26.3211 122.975 2 8 277
1932231N16151 1932 42 WP MM NOT_NAMED 1932-08-23 18:00:00 NR 26.3676 122.525 main 161 143 __________P___ -1 26.3676 122.525 2 8 276
1932231N16151 1932 42 WP MM NOT_NAMED 1932-08-23 21:00:00 NR 26.4000 122.100 main 143 134 __________O___ -1 26.4000 122.100 2 8 273
1932231N16151 1932 42 WP MM NOT_NAMED 1932-08-24 00:00:00 NR 26.4096 121.682 main 134 118 __________P___ -1 26.4096 121.682 2 7 271
1932231N16151 1932 42 WP MM NOT_NAMED 1932-08-24 03:00:00 NR 26.4065 121.285 main 118 82 __________P___ -1 26.4065 121.285 2 7 269
1932231N16151 1932 42 WP MM NOT_NAMED 1932-08-24 06:00:00 NR 26.4002 120.895 main 82 45 __________P___ -1 26.4002 120.895 2 7 269
1932231N16151 1932 42 WP MM NOT_NAMED 1932-08-24 09:00:00 NR 26.4000 120.500 main 45 22 __________O___ -1 26.4000 120.500 2 7 271
1932231N16151 1932 42 WP MM NOT_NAMED 1932-08-24 12:00:00 NR 26.4134 120.086 main 22 0 __________P___ -1 26.4134 120.086 2 7 273
1932231N16151 1932 42 WP MM NOT_NAMED 1932-08-24 15:00:00 NR 26.4345 119.665 main 9 0 __________P___ -1 26.4345 119.665 2 8 274
1932231N16151 1932 42 WP MM NOT_NAMED 1932-08-24 18:00:00 NR 26.4633 119.236 main 0 0 __________P___ -1 26.4633 119.236 2 8 275
1932231N16151 1932 42 WP MM NOT_NAMED 1932-08-24 21:00:00 NR 26.5000 118.800 main 0 0 __________O___ -1 26.5000 118.800 2 8 275
1932231N16151 1932 42 WP MM NOT_NAMED 1932-08-25 00:00:00 NR 26.5392 118.317 main 0 0 __________P___ -1 26.5392 118.317 2 9 276
1932231N16151 1932 42 WP MM NOT_NAMED 1932-08-25 03:00:00 NR 26.5857 117.833 main 0 0 __________P___ -1 26.5857 117.833 2 8 277
1932231N16151 1932 42 WP MM NOT_NAMED 1932-08-25 06:00:00 NR 26.6393 117.382 main 0 0 __________P___ -1 26.6393 117.382 2 8 279
1932231N16151 1932 42 WP MM NOT_NAMED 1932-08-25 09:00:00 NR 26.7000 117.000 main 0 0 __________O___ -1 26.7000 117.000 2 6 280
1932231N16151 1932 42 WP MM NOT_NAMED 1932-08-25 12:00:00 NR 26.7467 116.724 main 0 0 __________P___ -1 26.7467 116.724 2 4 284
1932231N16151 1932 42 WP MM NOT_NAMED 1932-08-25 15:00:00 NR 26.8040 116.517 main 0 0 __________P___ -1 26.8040 116.517 2 4 293
1932231N16151 1932 42 WP MM NOT_NAMED 1932-08-25 18:00:00 NR 26.8844 116.352 main 0 0 __________P___ -1 26.8844 116.352 2 3 305
1932231N16151 1932 42 WP MM NOT_NAMED 1932-08-25 21:00:00 NR 27.0000 116.200 main 0 0 __________O___ -1 27.0000 116.200 2 4 311
1932231N16151 1932 42 WP MM NOT_NAMED 1932-08-26 00:00:00 NR 27.1641 115.994 main 0 0 __________P___ -1 27.1641 115.994 2 5 315
1932231N16151 1932 42 WP MM NOT_NAMED 1932-08-26 03:00:00 NR 27.3626 115.798 main 0 0 __________P___ -1 27.3626 115.798 2 5 322
1932231N16151 1932 42 WP MM NOT_NAMED 1932-08-26 06:00:00 NR 27.5798 115.628 main 0 0 __________P___ -1 27.5798 115.628 2 5 329
1932231N16151 1932 42 WP MM NOT_NAMED 1932-08-26 09:00:00 NR 27.8000 115.500 main 0 0 __________O___ -1 27.8000 115.500 2 4 331
1932231N16151 1932 42 WP MM NOT_NAMED 1932-08-26 12:00:00 NR 27.9308 115.408 main 0 0 __________P___ -1 27.9308 115.408 2 3 336
1932231N16151 1932 42 WP MM NOT_NAMED 1932-08-26 15:00:00 NR 28.0723 115.361 main 0 0 __________P___ -1 28.0723 115.361 2 4 353
1932231N16151 1932 42 WP MM NOT_NAMED 1932-08-26 18:00:00 NR 28.2777 115.358 main 0 0 __________P___ -1 28.2777 115.358 2 5 5
1932231N16151 1932 42 WP MM NOT_NAMED 1932-08-26 21:00:00 NR 28.6000 115.400 main 0 0 __________O___ -1 28.6000 115.400 2 7 4
1932231N16151 1932 42 WP MM NOT_NAMED 1932-08-27 00:00:00 NR 29.0214 115.425 main 0 0 __________P___ -1 29.0214 115.425 2 10 5
1932231N16151 1932 42 WP MM NOT_NAMED 1932-08-27 03:00:00 NR 29.5720 115.500 main 0 0 __________P___ -1 29.5720 115.500 2 13 9
1932231N16151 1932 42 WP MM NOT_NAMED 1932-08-27 06:00:00 NR 30.2617 115.650 main 0 0 __________P___ -1 30.2617 115.650 2 16 13
1932231N16151 1932 42 WP MM NOT_NAMED 1932-08-27 09:00:00 NR 31.1000 115.900 main 0 0 __________O___ -1 31.1000 115.900 2 19 16
1932231N16151 1932 42 WP MM NOT_NAMED 1932-08-27 12:00:00 NR 32.1301 116.260 main 0 0 __________P___ -1 32.1301 116.260 2 23 18
1932231N16151 1932 42 WP MM NOT_NAMED 1932-08-27 15:00:00 NR 33.2903 116.730 main 0 0 __________P___ -1 33.2903 116.730 2 25 20
1932231N16151 1932 42 WP MM NOT_NAMED 1932-08-27 18:00:00 NR 34.4801 117.286 main 0 0 __________P___ -1 34.4801 117.286 2 25 23
1932231N16151 1932 42 WP MM NOT_NAMED 1932-08-27 21:00:00 NR 35.6000 117.900 main 0 0 __________O___ -1 35.6000 117.900 2 23 22
1932231N16151 1932 42 WP MM NOT_NAMED 1932-08-28 00:00:00 NR 36.5636 118.330 main 0 0 __________P___ -1 36.5636 118.330 2 20 22
1932231N16151 1932 42 WP MM NOT_NAMED 1932-08-28 03:00:00 NR 37.4383 118.833 main 0 0 __________P___ -1 37.4383 118.833 2 19 30
1932231N16151 1932 42 WP MM NOT_NAMED 1932-08-28 06:00:00 NR 38.2198 119.544 main 54 51 __________P___ -1 38.2198 119.544 2 20 44
1932231N16151 1932 42 WP MM NOT_NAMED 1932-08-28 09:00:00 NR 38.9000 120.600 main 43 0 __________O___ -1 38.9000 120.600 2 23 58
1932231N16151 1932 42 WP MM NOT_NAMED 1932-08-28 12:00:00 NR 39.4689 122.103 main 0 0 __________P___ -1 39.4689 122.103 2 28 68
1932231N16151 1932 42 WP MM NOT_NAMED 1932-08-28 15:00:00 NR 39.9322 123.984 main 0 0 __________P___ -1 39.9322 123.984 2 32 75
1932231N16151 1932 42 WP MM NOT_NAMED 1932-08-28 18:00:00 NR 40.3028 126.124 main 0 0 __________P___ -1 40.3028 126.124 2 34 79
1932231N16151 1932 42 WP MM NOT_NAMED 1932-08-28 21:00:00 NR 40.6000 128.400 main 0 __________O___ -1 40.6000 128.400 2 35 80

デジタル台風データ・検索

IBTrACS Databaseについて

本データベースは、米国NOAAが公開する1842年以降の世界の熱帯低気圧のベストトラックデータアーカイブInternational Best Track Archive for Climate Stewardship (IBTrACS)を、ウェブで閲覧しやすい形式に変換したものです。

最終更新日:2021-12-01